Погода Рах Гияна 2 недели

Нижняя Штирия, Словения

15 - 28 июня
  • 15июня
    Сегодня
    +14°
    +26°
    Небольшая облачность
    ВремяПогодаТемператураВлажностьДавлениеВетер, м/сВероятность осадков
    02:00Ясно и безоблачно+13°C88 %742 мм2.0 м/с2 %
    05:00Ясно и безоблачно+11°C92 %742 мм1.9 м/с2 %
    08:00Ясно и безоблачно+16°C82 %741 мм1.4 м/с2 %
    11:00Практически безоблачно+22°C62 %740 мм4.2 м/с2 %
    14:00Небольшая облачность+25°C52 %740 мм5.3 м/с5 %
    17:00Практически безоблачно+25°C52 %739 мм4.6 м/с24 %
    20:00Небольшая облачность+22°C63 %739 мм3.5 м/с15 %
    23:00Ясно и безоблачно+18°C70 %739 мм4.0 м/с7 %
  • 16июня
    Воскресенье
    +13°
    +24°
    Небольшая облачность
    ВремяПогодаТемператураВлажностьДавлениеВетер, м/сВероятность осадков
    02:00Облачно с прояснениями+16°C76 %739 мм2.7 м/с12 %
    05:00Ясно и безоблачно+15°C93 %739 мм1.4 м/с15 %
    08:00Ясно и безоблачно+17°C78 %741 мм1.4 м/с12 %
    11:00Небольшая облачность и лёгкий дождик+20°C65 %742 мм1.4 м/с11 %
    14:00Небольшая облачность+22°C60 %742 мм1.6 м/с30 %
    17:00Облачно с прояснениями+24°C59 %741 мм1.2 м/с38 %
    20:00Практически безоблачно+22°C75 %741 мм0.6 м/с17 %
    23:00Ясно и безоблачно+17°C91 %742 мм1.9 м/с2 %
  • 17июня
    Понедельник
    +15°
    +28°
    Ясно и безоблачно
    ВремяПогодаТемператураВлажностьДавлениеВетер, м/сВероятность осадков
    02:00Ясно и безоблачно+16°C96 %743 мм1.4 м/с2 %
    05:00Ясно и безоблачно+14°C97 %743 мм1.4 м/с2 %
    08:00Ясно и безоблачно+19°C84 %744 мм1.1 м/с3 %
    11:00Ясно и безоблачно+24°C67 %745 мм0.2 м/с7 %
    14:00Ясно и безоблачно+26°C53 %745 мм1.1 м/с24 %
    17:00Ясно и безоблачно+27°C45 %744 мм1.9 м/с11 %
    20:00Небольшая облачность+24°C65 %744 мм2.1 м/с5 %
    23:00Ясно и безоблачно+19°C80 %744 мм1.9 м/с2 %
  • 18июня
    Вторник
    +17°
    +30°
    Ясно и безоблачно
    ВремяПогодаТемператураВлажностьДавлениеВетер, м/сВероятность осадков
    02:00Ясно и безоблачно+17°C91 %744 мм1.7 м/с2 %
    05:00Ясно и безоблачно+15°C95 %745 мм1.6 м/с2 %
    08:00Ясно и безоблачно+20°C83 %746 мм0.9 м/с2 %
    11:00Небольшая облачность+26°C55 %746 мм1.4 м/с2 %
    14:00Ясно и безоблачно+29°C41 %746 мм2.7 м/с2 %
    17:00Ясно и безоблачно+30°C40 %745 мм3.1 м/с2 %
    20:00Ясно и безоблачно+26°C60 %744 мм2.9 м/с2 %
    23:00Облачно с прояснениями+22°C65 %744 мм3.2 м/с2 %
  • 19июня
    Среда
    +20°
    +32°
    Ясно и безоблачно
    ВремяПогодаТемператураВлажностьДавлениеВетер, м/сВероятность осадков
    02:00Практически безоблачно+21°C68 %744 мм3.2 м/с2 %
    05:00Ясно и безоблачно+18°C82 %744 мм2.1 м/с2 %
    08:00Ясно и безоблачно+22°C74 %744 мм1.3 м/с2 %
    11:00Ясно и безоблачно+28°C56 %745 мм1.5 м/с2 %
    14:00Ясно и безоблачно+31°C46 %744 мм2.7 м/с2 %
    17:00Ясно и безоблачно+31°C48 %744 мм3.3 м/с3 %
    20:00Ясно и безоблачно+26°C62 %744 мм2.6 м/с2 %
    23:00Небольшая облачность+23°C78 %745 мм1.4 м/с2 %
Мы используем cookies
Соглашаюсь